Time;durP1;ratioP1;P1;durP2;ratioP2;P2;SDS_P1;SDS_P2;PMS_P1;PMS_P2;Temp;Humidity;BMP_temperature;BMP_pressure;BME280_temperature;BME280_humidity;BME280_pressure;Samples;Min_cycle;Max_cycle;Signal;HPM_P1;HPM_P2
2022/05/08 00:01:47;;;;;;;2.90;2.70;;;;;;;11.36;63.79;100098.09;5008720;28;20633;-53
2022/05/08 00:04:15;;;;;;;4.30;3.90;;;;;;;11.43;63.78;100097.91;5008248;28;20281;-53
2022/05/08 00:06:42;;;;;;;4.40;3.60;;;;;;;11.41;63.64;100097.06;5008833;28;20703;-53
2022/05/08 00:09:09;;;;;;;5.80;2.80;;;;;;;11.47;63.28;100093.50;5008678;28;20210;-53
2022/05/08 00:11:36;;;;;;;4.60;3.47;;;;;;;11.46;63.27;100094.38;5008633;28;20213;-54
2022/05/08 00:14:03;;;;;;;6.00;3.30;;;;;;;11.45;63.39;100090.06;5008622;28;20660;-52
2022/05/08 00:16:30;;;;;;;3.83;3.30;;;;;;;11.37;63.69;100089.41;5016022;28;20193;-53
2022/05/08 00:18:57;;;;;;;5.73;3.03;;;;;;;11.38;63.87;100094.56;5027711;28;20225;-53
2022/05/08 00:21:25;;;;;;;7.87;3.57;;;;;;;11.40;63.33;100090.16;5027717;28;20237;-53
2022/05/08 00:23:52;;;;;;;7.67;3.43;;;;;;;11.37;63.76;100092.88;5028182;28;20206;-54
2022/05/08 00:26:19;;;;;;;4.73;3.20;;;;;;;11.33;63.61;100093.81;5027778;28;20237;-57
2022/05/08 00:28:46;;;;;;;7.00;3.80;;;;;;;11.30;63.81;100088.66;5027986;28;20204;-52
2022/05/08 00:31:13;;;;;;;9.97;3.43;;;;;;;11.30;63.35;100088.66;5027587;28;20202;-52
2022/05/08 00:33:40;;;;;;;12.40;3.43;;;;;;;11.08;63.91;100051.06;5028095;28;20252;-53
2022/05/08 00:36:08;;;;;;;8.77;3.33;;;;;;;11.22;64.21;100077.59;5027875;28;20586;-53
2022/05/08 00:38:37;;;;;;;4.47;3.67;;;;;;;11.37;63.75;100084.22;5027860;28;20706;-53
2022/05/08 00:41:04;;;;;;;6.47;4.10;;;;;;;11.38;63.70;100078.13;5027884;28;20288;-53
2022/05/08 00:43:33;;;;;;;6.53;3.60;;;;;;;11.25;64.24;100074.94;5027841;28;20197;-57
2022/05/08 00:46:05;;;;;;;6.30;3.40;;;;;;;11.15;64.29;100073.44;5027800;28;20194;-57
2022/05/08 00:48:32;;;;;;;4.97;3.27;;;;;;;11.17;64.68;100080.28;5027851;28;20194;-57
2022/05/08 00:51:01;;;;;;;7.60;3.60;;;;;;;11.14;65.02;100077.78;5027700;28;20578;-57
2022/05/08 00:53:35;;;;;;;3.73;3.40;;;;;;;11.05;65.32;100082.34;5027308;28;20197;-56
2022/05/08 00:56:06;;;;;;;3.93;3.50;;;;;;;11.00;65.23;100071.16;5027746;28;20746;-57
2022/05/08 00:58:34;;;;;;;8.27;3.70;;;;;;;11.13;65.51;100090.81;5027317;28;20228;-57
2022/05/08 01:01:01;;;;;;;5.33;3.40;;;;;;;11.10;65.96;100080.47;5027195;28;20814;-56
2022/05/08 01:03:28;;;;;;;4.27;3.90;;;;;;;11.17;65.92;100077.69;5027224;28;20201;-52
2022/05/08 01:05:57;;;;;;;5.67;3.70;;;;;;;11.12;66.60;100079.56;5027209;28;20204;-53
2022/05/08 01:08:26;;;;;;;4.77;3.67;;;;;;;11.07;66.87;100072.75;5027554;28;20698;-53
2022/05/08 01:10:54;;;;;;;6.83;4.17;;;;;;;11.02;67.53;100077.19;5026986;28;20197;-53
2022/05/08 01:13:22;;;;;;;5.63;4.33;;;;;;;10.98;68.02;100078.13;5027277;28;20244;-52
2022/05/08 01:15:49;;;;;;;4.83;4.30;;;;;;;10.86;69.44;100077.50;5027427;28;20201;-53
2022/05/08 01:18:17;;;;;;;5.23;4.20;;;;;;;10.85;69.43;100075.78;5027164;28;20220;-54
2022/05/08 01:20:46;;;;;;;14.87;4.97;;;;;;;10.84;69.43;100078.41;5027094;28;20203;-54
2022/05/08 01:23:16;;;;;;;5.40;4.30;;;;;;;10.80;70.36;100080.25;5026975;28;20209;-53
2022/05/08 01:25:47;;;;;;;6.53;4.87;;;;;;;10.82;70.42;100081.06;5027147;28;20898;-53
2022/05/08 01:28:15;;;;;;;7.00;4.60;;;;;;;10.82;70.50;100075.88;5027232;28;20710;-53
2022/05/08 01:30:43;;;;;;;7.40;4.87;;;;;;;10.80;70.53;100075.06;5027208;28;20225;-52
2022/05/08 01:33:10;;;;;;;8.47;4.93;;;;;;;10.74;71.21;100077.75;5026878;28;20193;-52
2022/05/08 01:35:38;;;;;;;8.13;5.47;;;;;;;10.63;72.22;100068.47;5027077;28;20288;-53
2022/05/08 01:38:05;;;;;;;7.20;5.00;;;;;;;10.71;72.18;100072.66;5026950;28;20197;-54
2022/05/08 01:40:34;;;;;;;8.07;5.00;;;;;;;10.77;72.47;100072.50;5027047;28;20217;-53
2022/05/08 01:43:01;;;;;;;10.50;5.40;;;;;;;10.73;72.69;100076.03;5027166;28;20200;-53
2022/05/08 01:45:29;;;;;;;6.90;5.03;;;;;;;10.66;72.96;100069.28;5026833;28;20197;-53
2022/05/08 01:50:50;;;;;;;5.97;5.40;;;;;;;10.64;73.95;100070.19;4979937;28;20193;-57
2022/05/08 01:53:18;;;;;;;5.67;5.10;;;;;;;10.54;74.52;100074.72;5026672;28;20201;-56
2022/05/08 01:55:49;;;;;;;5.70;4.97;;;;;;;10.52;75.97;100077.34;5026669;28;20193;-56
2022/05/08 01:58:16;;;;;;;5.63;5.13;;;;;;;10.39;76.76;100070.66;5026663;28;20225;-53
2022/05/08 02:00:43;;;;;;;6.23;4.90;;;;;;;10.40;77.23;100079.31;5026415;28;20221;-54
2022/05/08 02:03:10;;;;;;;6.47;4.70;;;;;;;10.29;78.07;100073.47;5026684;28;20208;-52
2022/05/08 02:05:40;;;;;;;5.60;5.03;;;;;;;10.29;78.88;100076.06;5026779;28;20288;-53
2022/05/08 02:08:08;;;;;;;11.47;4.83;;;;;;;10.23;78.96;100078.78;5026843;28;20208;-52
2022/05/08 02:10:35;;;;;;;5.23;4.73;;;;;;;10.12;80.46;100074.63;5026274;28;20198;-53
2022/05/08 02:13:03;;;;;;;8.40;5.13;;;;;;;10.00;81.53;100050.63;5028713;28;20709;-54
2022/05/08 02:15:31;;;;;;;7.57;5.00;;;;;;;10.11;82.33;100080.69;5029672;28;20190;-53
2022/05/08 02:18:01;;;;;;;7.00;5.03;;;;;;;10.16;82.77;100073.66;5029880;28;20198;-53
2022/05/08 02:20:28;;;;;;;7.33;5.27;;;;;;;10.19;82.53;100073.66;5029687;28;20221;-53
2022/05/08 02:22:56;;;;;;;8.57;4.80;;;;;;;10.13;82.36;100078.94;5029747;28;20289;-53
2022/05/08 02:25:23;;;;;;;8.77;5.07;;;;;;;10.05;83.79;100074.72;5029523;28;20229;-53
2022/05/08 02:27:51;;;;;;;5.73;5.07;;;;;;;9.98;84.22;100078.31;5029702;28;20596;-54
2022/05/08 02:30:23;;;;;;;5.93;5.13;;;;;;;9.86;85.35;100079.41;5029621;28;20201;-53
2022/05/08 02:32:53;;;;;;;11.30;5.40;;;;;;;9.70;86.48;100072.78;5029601;28;20208;-53
2022/05/08 02:35:21;;;;;;;6.87;5.60;;;;;;;9.69;86.73;100076.25;5029981;28;20648;-53
2022/05/08 02:37:50;;;;;;;8.93;5.30;;;;;;;9.56;87.51;100065.22;5029671;28;20197;-57
2022/05/08 02:40:18;;;;;;;6.80;5.73;;;;;;;9.61;87.91;100072.91;5029282;28;20225;-56
2022/05/08 02:42:45;;;;;;;8.00;5.50;;;;;;;9.70;86.58;100076.22;5029359;28;20289;-52
2022/05/08 02:45:12;;;;;;;11.97;5.67;;;;;;;9.65;87.21;100078.00;5029548;28;20211;-54
2022/05/08 02:47:41;;;;;;;5.97;5.47;;;;;;;9.48;88.89;100078.25;5029832;28;20197;-53
2022/05/08 02:50:10;;;;;;;6.27;5.60;;;;;;;9.48;88.50;100076.59;5029319;28;20205;-52
2022/05/08 02:52:38;;;;;;;11.43;5.80;;;;;;;9.36;89.83;100072.44;5029267;28;20202;-54
2022/05/08 03:00:36;;;;;;;10.43;6.37;;;;;;;9.18;91.71;100080.47;5027919;28;20610;-54
2022/05/08 03:03:05;;;;;;;10.70;6.00;;;;;;;9.16;92.49;100079.63;5008645;28;20226;-53
2022/05/08 03:05:32;;;;;;;6.10;5.50;;;;;;;9.14;91.81;100077.06;5008806;28;20225;-53
2022/05/08 03:08:00;;;;;;;9.07;6.37;;;;;;;9.04;91.80;100071.16;5008617;28;20254;-52
2022/05/08 03:10:27;;;;;;;17.03;7.10;;;;;;;9.25;89.16;100082.09;5008361;28;20261;-53
2022/05/08 03:12:54;;;;;;;6.80;5.70;;;;;;;9.15;89.71;100089.13;5008560;28;20601;-53
2022/05/08 03:15:21;;;;;;;6.17;5.20;;;;;;;9.20;88.55;100087.34;5008631;28;20214;-54
2022/05/08 03:17:48;;;;;;;6.23;5.60;;;;;;;9.25;88.58;100090.72;5008533;28;20226;-52
2022/05/08 03:20:17;;;;;;;10.83;6.07;;;;;;;9.28;88.15;100093.25;5008410;28;20232;-52
2022/05/08 03:22:43;;;;;;;7.17;6.47;;;;;;;9.31;87.95;100092.38;5008181;28;20222;-52
2022/05/08 03:25:10;;;;;;;8.60;5.90;;;;;;;9.29;87.78;100096.69;5010789;28;20245;-53
2022/05/08 03:27:37;;;;;;;6.50;5.90;;;;;;;9.26;88.29;100095.00;5048074;28;20223;-53
2022/05/08 03:30:05;;;;;;;10.03;6.40;;;;;;;9.31;87.96;100093.22;5044888;28;20217;-54
2022/05/08 03:32:32;;;;;;;6.13;5.50;;;;;;;9.31;88.05;100100.13;5008058;28;20222;-57
2022/05/08 03:34:59;;;;;;;6.53;5.93;;;;;;;9.35;87.50;100086.28;5008313;28;20229;-57
2022/05/08 03:37:27;;;;;;;7.20;6.50;;;;;;;9.50;87.33;100105.88;5010120;28;20234;-57
2022/05/08 03:39:54;;;;;;;6.40;5.80;;;;;;;9.61;86.37;100104.84;5007896;28;20240;-56
2022/05/08 03:42:21;;;;;;;7.23;6.53;;;;;;;9.76;84.23;100108.94;5007877;28;20317;-56
2022/05/08 03:44:48;;;;;;;6.57;5.97;;;;;;;9.79;85.03;100103.72;5008499;28;20729;-57
2022/05/08 03:47:14;;;;;;;7.67;5.93;;;;;;;9.88;84.59;100108.75;5013224;28;20612;-56
2022/05/08 03:49:41;;;;;;;13.80;6.07;;;;;;;9.94;84.52;100113.81;5078319;28;20250;-57
2022/05/08 03:52:09;;;;;;;8.17;6.10;;;;;;;10.60;81.67;100107.50;5047689;28;20213;-57
2022/05/08 03:54:37;;;;;;;9.77;6.67;;;;;;;11.88;74.33;100113.34;5007920;28;20205;-53
2022/05/08 03:57:05;;;;;;;7.80;6.63;;;;;;;13.31;65.75;100115.50;5007773;28;20301;-54
2022/05/08 03:59:32;;;;;;;7.00;6.30;;;;;;;14.40;59.68;100099.78;5007616;28;20226;-56
2022/05/08 04:01:59;;;;;;;10.53;6.13;;;;;;;15.65;55.65;100119.47;5009121;28;20212;-57
2022/05/08 04:04:26;;;;;;;7.70;6.10;;;;;;;16.82;51.06;100124.13;5008713;28;20202;-53
2022/05/08 04:06:53;;;;;;;7.53;5.50;;;;;;;17.64;47.41;100126.44;5008663;28;20206;-54
2022/05/08 04:09:19;;;;;;;5.77;5.37;;;;;;;18.74;44.32;100132.28;5008464;28;20206;-54
2022/05/08 04:11:48;;;;;;;6.87;5.20;;;;;;;19.35;42.37;100139.53;5008732;28;20194;-57
2022/05/08 04:14:15;;;;;;;5.80;5.32;;;;;;;20.06;40.63;100139.91;5008281;28;20688;-57
2022/05/08 04:16:40;;;;;;;7.50;5.30;;;;;;;20.88;39.08;100140.28;5008452;28;20668;-53
2022/05/08 04:19:08;;;;;;;11.80;6.00;;;;;;;21.76;37.02;100135.66;5008145;28;20202;-53
2022/05/08 04:21:34;;;;;;;6.45;5.78;;;;;;;21.79;36.99;100132.78;5008219;28;20640;-53
2022/05/08 04:24:19;;;;;;;6.70;6.10;;;;;;;22.73;35.19;100134.38;5008225;28;20208;-54
2022/05/08 04:26:46;;;;;;;5.72;5.20;;;;;;;23.13;34.31;100137.78;5008040;28;20359;-58
2022/05/08 04:29:14;;;;;;;6.57;4.65;;;;;;;22.40;34.95;100137.53;5008029;28;20288;-53
2022/05/08 04:31:41;;;;;;;8.35;4.88;;;;;;;22.67;34.84;100142.75;5013081;28;20209;-54
2022/05/08 04:34:08;;;;;;;7.95;5.07;;;;;;;22.92;34.52;100139.25;5016065;28;20664;-53
2022/05/08 04:36:35;;;;;;;8.32;5.53;;;;;;;22.63;34.68;100143.91;5013580;28;20281;-57
2022/05/08 04:39:02;;;;;;;5.95;5.45;;;;;;;22.23;35.20;100143.13;5010931;28;20695;-58
2022/05/08 04:41:29;;;;;;;5.25;4.85;;;;;;;22.52;34.39;100142.00;5007682;28;20318;-58
2022/05/08 04:43:59;;;;;;;6.85;5.03;;;;;;;22.99;33.62;100136.09;5007971;28;20294;-59
2022/05/08 04:46:28;;;;;;;4.85;4.55;;;;;;;23.46;33.12;100143.31;5007949;28;20259;-58
2022/05/08 04:48:55;;;;;;;7.38;4.78;;;;;;;24.30;32.00;100146.91;5008136;28;20209;-58
2022/05/08 04:51:22;;;;;;;5.50;5.10;;;;;;;24.95;31.01;100133.88;5007879;28;20205;-58
2022/05/08 04:53:49;;;;;;;5.97;5.28;;;;;;;25.64;30.03;100137.22;5013843;28;20672;-59
2022/05/08 04:56:16;;;;;;;5.65;5.15;;;;;;;26.60;28.83;100143.34;5011604;28;20190;-58
2022/05/08 04:58:43;;;;;;;5.38;5.05;;;;;;;26.68;28.74;100134.69;5008442;28;20194;-59
2022/05/08 05:01:10;;;;;;;8.52;5.45;;;;;;;26.03;29.13;100133.94;5008783;28;20784;-54
2022/05/08 05:03:39;;;;;;;6.18;5.68;;;;;;;25.73;29.79;100125.84;5018258;28;20228;-54
2022/05/08 05:06:05;;;;;;;5.82;5.00;;;;;;;26.21;28.94;100136.88;5015619;28;20228;-54
2022/05/08 05:08:32;;;;;;;5.90;5.40;;;;;;;26.13;28.94;100138.50;5016399;28;20309;-54
2022/05/08 05:10:59;;;;;;;8.18;5.55;;;;;;;26.33;28.69;100143.00;5010787;28;20620;-54
2022/05/08 05:13:26;;;;;;;6.47;5.63;;;;;;;26.50;28.73;100129.13;5018510;28;20221;-54
2022/05/08 05:15:53;;;;;;;7.88;5.38;;;;;;;26.35;28.82;100144.59;5014914;28;20276;-54
2022/05/08 05:18:20;;;;;;;6.55;5.80;;;;;;;26.84;28.47;100144.88;5017166;28;20272;-53
2022/05/08 05:20:48;;;;;;;6.30;5.72;;;;;;;27.35;27.48;100151.00;5015893;28;20789;-54
2022/05/08 05:23:15;;;;;;;6.25;5.75;;;;;;;27.72;27.80;100148.59;5014531;28;20202;-54
2022/05/08 05:25:42;;;;;;;6.10;5.63;;;;;;;27.29;28.09;100143.56;5016813;28;20263;-54
2022/05/08 05:28:09;;;;;;;9.73;5.40;;;;;;;27.46;28.39;100148.22;5016112;28;20641;-54
2022/05/08 05:30:37;;;;;;;5.68;5.07;;;;;;;27.26;28.63;100142.97;5015069;28;20196;-55
2022/05/08 05:33:04;;;;;;;5.68;5.18;;;;;;;27.53;28.06;100139.69;5016403;28;20276;-54
2022/05/08 05:35:31;;;;;;;5.80;5.30;;;;;;;26.68;29.13;100140.88;5016001;28;20200;-54
2022/05/08 05:37:59;;;;;;;5.50;5.00;;;;;;;26.56;29.89;100135.75;5016756;28;20209;-54
2022/05/08 05:40:26;;;;;;;6.07;5.55;;;;;;;26.58;29.75;100141.78;5012578;28;20226;-53
2022/05/08 05:42:53;;;;;;;5.55;5.05;;;;;;;26.68;29.62;100134.69;5015002;28;20209;-54
2022/05/08 05:45:20;;;;;;;6.50;5.13;;;;;;;27.07;29.12;100133.09;5016724;28;20194;-54
2022/05/08 05:47:53;;;;;;;5.68;5.05;;;;;;;26.85;29.93;100141.25;5018960;28;20594;-53
2022/05/08 05:50:20;;;;;;;5.35;4.95;;;;;;;26.34;30.26;100134.91;5018638;28;20197;-53
2022/05/08 05:52:47;;;;;;;5.95;5.45;;;;;;;26.02;31.05;100137.56;5019433;28;20201;-54
2022/05/08 05:55:16;;;;;;;7.53;5.15;;;;;;;26.68;30.09;100142.69;5018008;28;20203;-57
2022/05/08 05:57:43;;;;;;;5.57;5.07;;;;;;;26.75;29.89;100143.84;5019439;28;20221;-57
2022/05/08 06:00:12;;;;;;;9.43;5.63;;;;;;;26.64;29.87;100139.44;5017929;28;20422;-59
2022/05/08 06:02:42;;;;;;;6.70;5.65;;;;;;;26.69;29.67;100139.91;5017449;28;20217;-57
2022/05/08 06:05:10;;;;;;;6.93;5.32;;;;;;;26.16;30.77;100135.59;5016756;28;20209;-58
2022/05/08 06:07:38;;;;;;;8.13;4.85;;;;;;;26.27;30.15;100130.22;5017586;28;20226;-57
2022/05/08 06:10:07;;;;;;;5.78;5.10;;;;;;;26.28;30.19;100115.97;5016385;28;20220;-57
2022/05/08 06:12:35;;;;;;;5.68;5.18;;;;;;;26.37;30.31;100126.69;5017830;28;20221;-57
2022/05/08 06:15:03;;;;;;;6.10;5.40;;;;;;;26.20;30.74;100132.53;5018832;28;20236;-57
2022/05/08 06:17:30;;;;;;;7.25;5.72;;;;;;;26.14;30.70;100125.06;5017895;28;20222;-58
2022/05/08 06:19:57;;;;;;;8.05;5.40;;;;;;;26.15;30.50;100115.28;5016979;28;20252;-57
2022/05/08 06:22:24;;;;;;;7.07;5.28;;;;;;;26.21;30.89;100130.72;5009743;28;20217;-58
2022/05/08 06:24:51;;;;;;;13.60;5.20;;;;;;;26.51;31.59;100130.00;5007700;28;20226;-58
2022/05/08 06:27:18;;;;;;;6.75;5.05;;;;;;;27.24;29.90;100137.78;5028003;28;20236;-58
2022/05/08 06:29:46;;;;;;;6.65;5.65;;;;;;;26.67;30.98;100127.69;5047884;28;20224;-58
2022/05/08 06:32:13;;;;;;;8.90;5.45;;;;;;;26.28;31.25;100134.59;5048371;28;20221;-57
2022/05/08 06:34:41;;;;;;;9.02;6.18;;;;;;;26.41;31.18;100132.59;5048132;28;20224;-58
2022/05/08 06:37:09;;;;;;;5.50;4.70;;;;;;;26.04;32.46;100129.47;5048031;28;20312;-57
2022/05/08 06:39:37;;;;;;;5.80;5.28;;;;;;;25.48;32.65;100131.44;5047454;28;20277;-54
2022/05/08 06:42:05;;;;;;;8.10;5.10;;;;;;;24.66;34.52;100124.66;5047781;28;20232;-54
2022/05/08 06:44:32;;;;;;;8.18;4.93;;;;;;;24.45;34.12;100132.47;5042197;28;20231;-54
2022/05/08 06:47:01;;;;;;;12.00;5.13;;;;;;;24.10;34.91;100114.75;5028302;28;20197;-54
2022/05/08 06:49:28;;;;;;;6.68;5.03;;;;;;;24.03;34.79;100132.09;5025532;28;20224;-54
2022/05/08 06:51:54;;;;;;;7.28;5.40;;;;;;;23.85;35.26;100109.56;5020967;28;20272;-52
2022/05/08 06:54:21;;;;;;;9.88;5.18;;;;;;;24.34;34.34;100122.69;5017248;28;20209;-51
2022/05/08 06:56:48;;;;;;;8.93;4.95;;;;;;;24.03;34.88;100115.31;5017667;28;20630;-54
2022/05/08 07:02:01;;;;;;;20.85;8.23;;;;;;;24.07;35.83;100112.31;5028561;28;20224;-57
2022/05/08 07:04:28;;;;;;;7.38;5.28;;;;;;;24.33;34.88;100118.34;5028098;28;20623;-53
2022/05/08 07:06:55;;;;;;;11.18;5.65;;;;;;;24.34;35.21;100104.09;5028342;28;20197;-56
2022/05/08 07:09:22;;;;;;;14.60;6.32;;;;;;;24.47;35.25;100107.50;5027788;28;20674;-56
2022/05/08 07:11:49;;;;;;;8.15;5.50;;;;;;;24.64;34.31;100105.34;5028351;28;20553;-55
2022/05/08 07:14:16;;;;;;;7.75;5.47;;;;;;;24.90;34.18;100101.50;5027338;28;20197;-56
2022/05/08 07:16:43;;;;;;;8.77;6.10;;;;;;;24.57;34.89;100091.72;5027949;28;20194;-56
2022/05/08 07:19:12;;;;;;;13.25;5.43;;;;;;;24.52;34.37;100108.00;5026919;28;20288;-56
2022/05/08 07:21:39;;;;;;;8.02;5.20;;;;;;;24.44;34.46;100107.75;5013229;28;20220;-55
2022/05/08 07:24:07;;;;;;;13.60;5.88;;;;;;;24.78;33.48;100105.13;5008678;28;20201;-56
2022/05/08 07:26:36;;;;;;;12.13;5.90;;;;;;;24.95;34.01;100099.34;5008866;28;20298;-56
2022/05/08 07:29:04;;;;;;;8.88;5.15;;;;;;;25.51;32.60;100099.25;5009197;28;20740;-56
2022/05/08 07:31:31;;;;;;;6.80;5.30;;;;;;;26.00;31.48;100106.75;5008783;28;20194;-56
2022/05/08 07:36:43;;;;;;;5.88;5.22;;;;;;;26.81;31.01;100102.53;5008962;28;20600;-56
2022/05/08 07:39:10;;;;;;;6.80;5.25;;;;;;;27.19;29.62;100112.53;5008918;28;20281;-56
2022/05/08 07:41:38;;;;;;;6.10;5.55;;;;;;;26.93;30.35;100106.81;5008856;28;20232;-56
2022/05/08 07:44:05;;;;;;;5.25;4.72;;;;;;;26.50;30.85;100110.50;5008507;28;20206;-55
2022/05/08 07:46:32;;;;;;;6.22;5.32;;;;;;;26.66;30.47;100105.53;5025597;28;20639;-56
2022/05/08 07:48:59;;;;;;;9.82;6.20;;;;;;;27.01;29.68;100105.16;5027306;28;20225;-56
2022/05/08 07:51:26;;;;;;;7.20;5.80;;;;;;;26.90;29.96;100093.72;5027413;28;20220;-56
2022/05/08 07:53:54;;;;;;;7.93;6.88;;;;;;;27.15;29.89;100098.63;5029088;28;20620;-55
2022/05/08 07:56:21;;;;;;;7.05;6.00;;;;;;;27.85;28.91;100092.31;5047709;28;20254;-56
2022/05/08 07:58:48;;;;;;;6.30;5.70;;;;;;;27.64;28.95;100094.28;5047639;28;20219;-56
2022/05/08 08:01:15;;;;;;;8.82;5.65;;;;;;;27.41;28.83;100097.16;5047175;28;20225;-55
2022/05/08 08:03:42;;;;;;;16.65;5.65;;;;;;;27.56;28.53;100092.28;5047165;28;20240;-56
2022/05/08 08:06:09;;;;;;;7.97;5.30;;;;;;;27.88;28.48;100093.88;5047335;28;20303;-52
2022/05/08 08:08:36;;;;;;;6.20;5.13;;;;;;;27.30;28.83;100093.75;5046951;28;20217;-53
2022/05/08 08:11:05;;;;;;;5.07;4.78;;;;;;;27.16;29.37;100097.66;5046114;28;20757;-52
2022/05/08 08:13:33;;;;;;;11.48;5.55;;;;;;;26.71;29.34;100092.69;5039789;28;20258;-53
2022/05/08 08:16:00;;;;;;;8.73;4.45;;;;;;;26.79;29.44;100094.66;5026712;28;20193;-53
2022/05/08 08:18:28;;;;;;;7.05;4.95;;;;;;;26.81;29.02;100090.06;5027787;28;20254;-53
2022/05/08 08:20:55;;;;;;;5.47;4.72;;;;;;;26.70;29.15;100098.97;5028156;28;20226;-54
2022/05/08 08:23:22;;;;;;;5.70;5.00;;;;;;;26.73;28.95;100104.03;5028085;28;20201;-53
2022/05/08 08:25:49;;;;;;;5.65;4.93;;;;;;;26.07;29.33;100093.78;5025801;28;20225;-53
2022/05/08 08:28:18;;;;;;;7.22;5.00;;;;;;;25.40;30.64;100093.97;5027551;28;20600;-53
2022/05/08 08:30:44;;;;;;;4.90;4.45;;;;;;;25.23;30.60;100087.38;5019621;28;20811;-52
2022/05/08 08:33:11;;;;;;;5.38;4.78;;;;;;;25.09;31.19;100082.31;5017414;28;20203;-56
2022/05/08 08:35:39;;;;;;;5.47;4.97;;;;;;;24.43;32.20;100087.47;5016268;28;20200;-56
2022/05/08 08:38:06;;;;;;;6.22;4.78;;;;;;;24.46;32.07;100086.41;5018068;28;20625;-56
2022/05/08 08:40:39;;;;;;;6.30;5.30;;;;;;;24.29;32.52;100085.03;5016777;28;20742;-56
2022/05/08 08:43:07;;;;;;;11.40;4.78;;;;;;;24.23;32.92;100085.50;5016959;28;20288;-56
2022/05/08 08:48:28;;;;;;;13.98;5.15;;;;;;;24.07;32.83;100080.47;5027128;28;20204;-55
2022/05/08 08:50:56;;;;;;;5.85;4.28;;;;;;;24.12;32.78;100086.28;5027361;28;20201;-56
2022/05/08 08:53:24;;;;;;;4.68;4.00;;;;;;;24.12;32.95;100075.69;5027426;28;20208;-56
2022/05/08 08:55:52;;;;;;;7.50;4.55;;;;;;;24.30;32.93;100075.25;5018785;28;20194;-57
2022/05/08 08:58:19;;;;;;;5.13;4.53;;;;;;;24.22;32.80;100070.56;5007286;28;20208;-56
2022/05/08 09:00:49;;;;;;;5.05;4.65;;;;;;;24.25;32.86;100062.38;5008745;28;20580;-56
2022/05/08 09:03:20;;;;;;;5.78;4.75;;;;;;;24.16;32.64;100065.66;5027333;28;20613;-56
2022/05/08 09:05:47;;;;;;;5.20;4.28;;;;;;;23.72;33.69;100056.63;5027131;28;20201;-56
2022/05/08 09:08:26;;;;;;;5.28;4.10;;;;;;;23.77;33.19;100070.38;5026996;28;20200;-57
2022/05/08 09:10:54;;;;;;;4.47;3.92;;;;;;;23.43;34.11;100060.53;5009702;28;20209;-56
2022/05/08 09:13:23;;;;;;;6.13;3.65;;;;;;;23.68;33.92;100051.66;5007432;28;20728;-56
2022/05/08 09:16:00;;;;;;;5.18;4.68;;;;;;;23.51;34.33;100039.66;5007436;28;20650;-56
2022/05/08 09:18:27;;;;;;;4.38;4.00;;;;;;;23.78;33.77;100048.22;5007042;28;20200;-56
2022/05/08 09:20:57;;;;;;;7.28;4.80;;;;;;;23.84;33.79;100049.53;5017640;28;20205;-56
2022/05/08 09:23:25;;;;;;;5.25;4.57;;;;;;;23.73;33.74;100054.81;5027062;28;20201;-56
2022/05/08 09:25:54;;;;;;;7.85;4.90;;;;;;;23.58;35.29;100051.50;5026919;28;20241;-56
2022/05/08 09:28:22;;;;;;;7.38;4.82;;;;;;;23.79;35.11;100047.25;5026283;28;20197;-56
2022/05/08 09:30:59;;;;;;;4.50;3.90;;;;;;;23.74;34.96;100032.66;5023303;28;20668;-56
2022/05/08 09:33:28;;;;;;;5.07;4.65;;;;;;;23.77;35.06;100037.72;5026832;28;20280;-57
2022/05/08 09:35:56;;;;;;;4.68;4.28;;;;;;;23.80;35.01;100038.34;5027105;28;20225;-56
2022/05/08 09:38:23;;;;;;;5.63;4.13;;;;;;;23.79;35.21;100039.31;5026962;28;20422;-56
2022/05/08 09:41:05;;;;;;;4.80;4.00;;;;;;;23.81;34.54;100040.03;5019952;28;20212;-53
2022/05/08 09:43:34;;;;;;;4.82;4.20;;;;;;;23.75;34.56;100032.53;5017075;28;20251;-52
2022/05/08 09:46:05;;;;;;;3.90;3.70;;;;;;;23.77;34.14;100025.31;5026336;28;20217;-53
2022/05/08 09:48:34;;;;;;;5.03;4.15;;;;;;;23.68;33.95;100027.81;5026145;28;20595;-53
2022/05/08 09:51:02;;;;;;;5.05;4.57;;;;;;;23.49;35.77;100022.97;5025187;28;20224;-51
2022/05/08 09:53:31;;;;;;;5.72;4.57;;;;;;;22.76;36.83;100029.19;5026620;28;20197;-52
2022/05/08 09:55:59;;;;;;;12.57;5.82;;;;;;;22.48;36.81;100024.09;5026789;28;20209;-53
2022/05/08 09:58:26;;;;;;;13.55;5.70;;;;;;;22.38;37.41;100018.59;5026706;28;20219;-56
2022/05/08 10:00:54;;;;;;;4.53;4.22;;;;;;;22.40;37.36;100015.84;5026371;28;20208;-57
2022/05/08 10:03:23;;;;;;;4.97;4.47;;;;;;;22.58;36.94;100011.91;5008911;28;20241;-56
2022/05/08 10:05:50;;;;;;;6.53;4.53;;;;;;;22.55;37.02;100008.66;5046420;28;20604;-55
2022/05/08 10:08:19;;;;;;;5.10;4.55;;;;;;;22.22;37.44;99983.63;5045631;28;20224;-56
2022/05/08 10:13:57;;;;;;;5.07;4.57;;;;;;;21.88;38.41;99978.91;5016675;28;20598;-56
2022/05/08 10:16:53;;;;;;;6.35;5.65;;;;;;;22.13;38.61;99992.16;5009992;28;20217;-56
2022/05/08 10:19:55;;;;;;;7.03;5.32;;;;;;;22.17;39.48;99980.44;5024543;28;20221;-57
2022/05/08 10:22:23;;;;;;;5.68;5.25;;;;;;;21.98;39.01;99994.06;5024584;28;20232;-57
2022/05/08 10:24:56;;;;;;;5.90;4.53;;;;;;;21.67;39.39;99978.56;5024416;28;20225;-55
2022/05/08 10:27:28;;;;;;;4.35;3.95;;;;;;;21.41;39.13;99972.38;5024457;28;20225;-56
2022/05/08 10:30:23;;;;;;;7.55;3.83;;;;;;;21.09;39.44;99979.75;5025105;28;20729;-56
2022/05/08 10:32:51;;;;;;;4.18;3.88;;;;;;;21.02;39.74;99965.22;5025406;28;20687;-56
2022/05/08 10:35:22;;;;;;;4.90;4.40;;;;;;;21.06;40.54;99972.00;5024476;28;20323;-56
2022/05/08 10:37:50;;;;;;;4.15;3.80;;;;;;;21.15;40.92;99970.56;5023072;28;20229;-56
2022/05/08 10:40:32;;;;;;;5.70;4.28;;;;;;;20.98;41.75;99966.38;5028491;28;20241;-57
2022/05/08 10:43:00;;;;;;;7.05;4.18;;;;;;;20.89;42.40;99943.22;5020185;28;20738;-57
2022/05/08 10:45:42;;;;;;;4.30;3.92;;;;;;;20.94;40.98;99962.25;5018349;28;20894;-57
2022/05/08 10:48:16;;;;;;;4.55;4.22;;;;;;;20.76;41.93;99966.06;5018043;28;20312;-57
2022/05/08 10:50:48;;;;;;;6.55;4.40;;;;;;;20.51;42.22;99943.03;5018033;28;20701;-56
2022/05/08 10:53:28;;;;;;;7.07;4.15;;;;;;;20.72;42.70;99962.78;5013178;28;20217;-57
2022/05/08 10:56:05;;;;;;;6.90;3.83;;;;;;;20.64;42.95;99947.44;5013655;28;20248;-54
2022/05/08 10:58:33;;;;;;;7.25;4.72;;;;;;;20.81;43.43;99956.06;5022567;28;20243;-56
2022/05/08 11:01:02;;;;;;;5.10;3.70;;;;;;;20.98;44.19;99942.63;5028211;28;20694;-56
2022/05/08 11:03:29;;;;;;;4.75;4.35;;;;;;;21.07;42.96;99943.81;5028287;28;20281;-56
2022/05/08 11:05:58;;;;;;;5.22;4.70;;;;;;;20.95;43.33;99929.63;5028336;28;20217;-55
2022/05/08 11:08:28;;;;;;;6.78;4.65;;;;;;;21.00;42.55;99935.44;5028361;28;20221;-53
2022/05/08 11:11:02;;;;;;;4.10;3.70;;;;;;;21.04;42.13;99936.94;5028456;28;20222;-54
2022/05/08 11:13:46;;;;;;;7.25;4.22;;;;;;;21.02;42.75;99928.28;5028652;28;20221;-54
2022/05/08 11:16:16;;;;;;;4.90;4.43;;;;;;;20.97;44.34;99933.03;5024062;28;20263;-54
2022/05/08 11:18:43;;;;;;;4.75;4.30;;;;;;;20.97;44.59;99925.09;5008445;28;20279;-53
2022/05/08 11:21:16;;;;;;;7.60;4.13;;;;;;;20.83;44.38;99919.88;5008410;28;20244;-54
2022/05/08 11:23:44;;;;;;;5.00;3.78;;;;;;;20.77;45.02;99922.91;5008175;28;20250;-53
2022/05/08 11:26:14;;;;;;;5.45;4.38;;;;;;;20.57;44.91;99918.88;5008356;28;20346;-54
2022/05/08 11:28:48;;;;;;;5.65;3.72;;;;;;;20.35;45.37;99900.94;5011057;28;20608;-54
2022/05/08 11:31:17;;;;;;;4.47;3.92;;;;;;;20.35;45.62;99915.88;5016697;28;20220;-54
2022/05/08 11:36:32;;;;;;;4.38;3.97;;;;;;;20.49;45.78;99911.47;5028391;28;20286;-53
2022/05/08 11:39:00;;;;;;;4.63;4.18;;;;;;;20.51;45.84;99877.09;5028079;28;20266;-52
2022/05/08 11:41:29;;;;;;;9.65;4.60;;;;;;;20.79;45.77;99899.91;5028566;28;20683;-52
2022/05/08 11:43:58;;;;;;;4.75;4.35;;;;;;;20.80;45.60;99902.44;5027454;28;20227;-53
2022/05/08 11:46:35;;;;;;;8.25;4.80;;;;;;;20.77;45.36;99902.63;5027519;28;20225;-53
2022/05/08 11:49:02;;;;;;;9.07;5.25;;;;;;;20.72;45.62;99883.63;5027841;28;20620;-53
2022/05/08 11:51:42;;;;;;;7.53;4.80;;;;;;;20.76;46.62;99877.22;5028161;28;20702;-53
2022/05/08 11:54:19;;;;;;;6.30;4.40;;;;;;;21.01;46.08;99879.91;5027562;28;20213;-53
2022/05/08 11:56:47;;;;;;;5.70;4.70;;;;;;;21.12;45.98;99875.72;5027746;28;20217;-54